sensor_id;sensor_type;location;lat;lon;timestamp;pressure;altitude;pressure_sealevel;temperature;humidity
13695;BME280;6919;52.344;14.518;2023-10-13T00:02:00;100721.47;;;13.93;100.00
13695;BME280;6919;52.344;14.518;2023-10-13T00:04:33;100719.44;;;13.95;100.00
13695;BME280;6919;52.344;14.518;2023-10-13T00:07:04;100716.91;;;13.93;100.00
13695;BME280;6919;52.344;14.518;2023-10-13T00:09:36;100716.25;;;13.91;100.00
13695;BME280;6919;52.344;14.518;2023-10-13T00:12:07;100724.19;;;13.85;100.00
13695;BME280;6919;52.344;14.518;2023-10-13T00:14:39;100719.66;;;13.77;100.00
13695;BME280;6919;52.344;14.518;2023-10-13T00:17:08;100727.88;;;13.84;100.00
13695;BME280;6919;52.344;14.518;2023-10-13T00:19:44;100736.31;;;13.81;100.00
13695;BME280;6919;52.344;14.518;2023-10-13T00:22:15;100735.50;;;13.80;100.00
13695;BME280;6919;52.344;14.518;2023-10-13T00:24:44;100724.69;;;13.88;100.00
13695;BME280;6919;52.344;14.518;2023-10-13T00:27:15;100719.50;;;13.79;100.00
13695;BME280;6919;52.344;14.518;2023-10-13T00:29:58;100722.66;;;13.82;100.00
13695;BME280;6919;52.344;14.518;2023-10-13T00:32:49;100725.38;;;13.90;100.00
13695;BME280;6919;52.344;14.518;2023-10-13T00:35:24;100727.69;;;13.93;100.00
13695;BME280;6919;52.344;14.518;2023-10-13T00:37:55;100722.81;;;13.97;100.00
13695;BME280;6919;52.344;14.518;2023-10-13T00:40:25;100724.81;;;14.03;100.00
13695;BME280;6919;52.344;14.518;2023-10-13T00:43:08;100718.25;;;13.89;100.00
13695;BME280;6919;52.344;14.518;2023-10-13T00:45:55;100718.63;;;13.78;100.00
13695;BME280;6919;52.344;14.518;2023-10-13T00:48:26;100722.34;;;13.77;100.00
13695;BME280;6919;52.344;14.518;2023-10-13T00:51:00;100725.19;;;13.84;100.00
13695;BME280;6919;52.344;14.518;2023-10-13T00:53:31;100734.47;;;13.81;100.00
13695;BME280;6919;52.344;14.518;2023-10-13T00:56:01;100740.88;;;13.72;100.00
13695;BME280;6919;52.344;14.518;2023-10-13T00:58:34;100743.03;;;13.93;100.00
13695;BME280;6919;52.344;14.518;2023-10-13T01:01:03;100743.53;;;14.04;100.00
13695;BME280;6919;52.344;14.518;2023-10-13T01:03:47;100733.44;;;13.90;100.00
13695;BME280;6919;52.344;14.518;2023-10-13T01:06:18;100729.22;;;13.88;100.00
13695;BME280;6919;52.344;14.518;2023-10-13T01:08:48;100724.19;;;13.85;100.00
13695;BME280;6919;52.344;14.518;2023-10-13T01:11:19;100732.59;;;13.90;100.00
13695;BME280;6919;52.344;14.518;2023-10-13T01:13:50;100727.16;;;14.06;100.00
13695;BME280;6919;52.344;14.518;2023-10-13T01:16:19;100726.50;;;14.04;100.00
13695;BME280;6919;52.344;14.518;2023-10-13T01:18:50;100722.50;;;13.92;100.00
13695;BME280;6919;52.344;14.518;2023-10-13T01:21:19;100722.28;;;14.01;100.00
13695;BME280;6919;52.344;14.518;2023-10-13T01:23:49;100720.06;;;14.05;100.00
13695;BME280;6919;52.344;14.518;2023-10-13T01:26:18;100714.81;;;14.27;100.00
13695;BME280;6919;52.344;14.518;2023-10-13T01:28:51;100709.28;;;14.05;100.00
13695;BME280;6919;52.344;14.518;2023-10-13T01:31:21;100707.09;;;14.08;100.00
13695;BME280;6919;52.344;14.518;2023-10-13T01:33:54;100705.25;;;14.01;100.00
13695;BME280;6919;52.344;14.518;2023-10-13T01:36:27;100706.47;;;13.98;100.00
13695;BME280;6919;52.344;14.518;2023-10-13T01:38:56;100706.13;;;13.93;100.00
13695;BME280;6919;52.344;14.518;2023-10-13T01:41:28;100701.50;;;14.26;100.00
13695;BME280;6919;52.344;14.518;2023-10-13T01:43:58;100699.41;;;13.97;100.00
13695;BME280;6919;52.344;14.518;2023-10-13T01:46:26;100698.19;;;14.00;100.00
13695;BME280;6919;52.344;14.518;2023-10-13T01:48:55;100697.19;;;14.01;100.00
13695;BME280;6919;52.344;14.518;2023-10-13T01:51:24;100691.50;;;14.34;100.00
13695;BME280;6919;52.344;14.518;2023-10-13T01:53:56;100683.75;;;14.31;100.00
13695;BME280;6919;52.344;14.518;2023-10-13T01:56:25;100690.53;;;14.19;100.00
13695;BME280;6919;52.344;14.518;2023-10-13T01:58:56;100695.75;;;14.21;100.00
13695;BME280;6919;52.344;14.518;2023-10-13T02:01:33;100691.34;;;14.36;100.00
13695;BME280;6919;52.344;14.518;2023-10-13T02:04:02;100688.47;;;14.37;100.00
13695;BME280;6919;52.344;14.518;2023-10-13T02:06:33;100685.72;;;14.45;100.00
13695;BME280;6919;52.344;14.518;2023-10-13T02:09:04;100684.91;;;14.45;100.00
13695;BME280;6919;52.344;14.518;2023-10-13T02:11:42;100681.91;;;14.32;100.00
13695;BME280;6919;52.344;14.518;2023-10-13T02:14:10;100678.53;;;14.38;100.00
13695;BME280;6919;52.344;14.518;2023-10-13T02:16:39;100679.16;;;14.40;100.00
13695;BME280;6919;52.344;14.518;2023-10-13T02:19:07;100683.09;;;14.21;100.00
13695;BME280;6919;52.344;14.518;2023-10-13T02:21:36;100679.28;;;14.08;100.00
13695;BME280;6919;52.344;14.518;2023-10-13T02:24:08;100687.72;;;14.05;100.00
13695;BME280;6919;52.344;14.518;2023-10-13T02:26:40;100685.38;;;14.10;100.00
13695;BME280;6919;52.344;14.518;2023-10-13T02:29:08;100677.22;;;14.18;100.00
13695;BME280;6919;52.344;14.518;2023-10-13T02:31:42;100685.38;;;14.02;100.00
13695;BME280;6919;52.344;14.518;2023-10-13T02:34:10;100690.03;;;14.16;100.00
13695;BME280;6919;52.344;14.518;2023-10-13T02:36:40;100688.69;;;14.28;100.00
13695;BME280;6919;52.344;14.518;2023-10-13T02:39:18;100680.47;;;14.52;100.00
13695;BME280;6919;52.344;14.518;2023-10-13T02:41:54;100682.34;;;14.05;100.00
13695;BME280;6919;52.344;14.518;2023-10-13T02:44:22;100686.25;;;13.94;100.00
13695;BME280;6919;52.344;14.518;2023-10-13T02:46:57;100683.13;;;14.29;100.00
13695;BME280;6919;52.344;14.518;2023-10-13T02:49:27;100673.47;;;14.35;100.00
13695;BME280;6919;52.344;14.518;2023-10-13T02:51:58;100670.78;;;14.27;100.00
13695;BME280;6919;52.344;14.518;2023-10-13T02:54:28;100670.09;;;14.63;100.00
13695;BME280;6919;52.344;14.518;2023-10-13T02:56:58;100665.03;;;14.60;100.00
13695;BME280;6919;52.344;14.518;2023-10-13T02:59:31;100649.75;;;14.53;100.00
13695;BME280;6919;52.344;14.518;2023-10-13T03:02:08;100661.84;;;14.34;100.00
13695;BME280;6919;52.344;14.518;2023-10-13T03:04:46;100650.63;;;14.45;100.00
13695;BME280;6919;52.344;14.518;2023-10-13T03:07:15;100645.47;;;14.36;100.00
13695;BME280;6919;52.344;14.518;2023-10-13T03:09:51;100636.97;;;14.47;100.00
13695;BME280;6919;52.344;14.518;2023-10-13T03:12:20;100632.38;;;14.25;100.00
13695;BME280;6919;52.344;14.518;2023-10-13T03:14:47;100625.53;;;14.67;100.00
13695;BME280;6919;52.344;14.518;2023-10-13T03:17:16;100616.06;;;14.72;100.00
13695;BME280;6919;52.344;14.518;2023-10-13T03:19:46;100622.50;;;14.40;100.00
13695;BME280;6919;52.344;14.518;2023-10-13T03:22:18;100629.84;;;14.54;100.00
13695;BME280;6919;52.344;14.518;2023-10-13T03:24:46;100630.78;;;14.38;100.00
13695;BME280;6919;52.344;14.518;2023-10-13T03:27:19;100625.63;;;14.29;100.00
13695;BME280;6919;52.344;14.518;2023-10-13T03:29:51;100627.06;;;14.39;100.00
13695;BME280;6919;52.344;14.518;2023-10-13T03:32:22;100625.16;;;14.48;100.00
13695;BME280;6919;52.344;14.518;2023-10-13T03:34:54;100621.94;;;14.52;100.00
13695;BME280;6919;52.344;14.518;2023-10-13T03:37:33;100608.00;;;14.63;100.00
13695;BME280;6919;52.344;14.518;2023-10-13T03:40:08;100607.84;;;14.65;100.00
13695;BME280;6919;52.344;14.518;2023-10-13T03:43:00;100600.66;;;14.57;100.00
13695;BME280;6919;52.344;14.518;2023-10-13T03:45:33;100600.84;;;14.56;100.00
13695;BME280;6919;52.344;14.518;2023-10-13T03:48:08;100590.41;;;14.76;100.00
13695;BME280;6919;52.344;14.518;2023-10-13T03:50:58;100579.63;;;14.67;100.00
13695;BME280;6919;52.344;14.518;2023-10-13T03:53:30;100573.25;;;14.68;100.00
13695;BME280;6919;52.344;14.518;2023-10-13T03:56:02;100563.22;;;14.77;100.00
13695;BME280;6919;52.344;14.518;2023-10-13T03:58:41;100560.09;;;14.65;100.00
13695;BME280;6919;52.344;14.518;2023-10-13T04:01:14;100561.53;;;14.53;100.00
13695;BME280;6919;52.344;14.518;2023-10-13T04:03:44;100552.72;;;14.59;100.00
13695;BME280;6919;52.344;14.518;2023-10-13T04:06:31;100555.59;;;14.58;100.00
13695;BME280;6919;52.344;14.518;2023-10-13T04:09:28;100546.38;;;14.30;100.00
13695;BME280;6919;52.344;14.518;2023-10-13T04:12:37;100552.69;;;14.45;100.00
13695;BME280;6919;52.344;14.518;2023-10-13T04:15:21;100557.16;;;14.52;100.00
13695;BME280;6919;52.344;14.518;2023-10-13T04:17:54;100549.31;;;14.65;100.00
13695;BME280;6919;52.344;14.518;2023-10-13T04:20:23;100557.34;;;14.51;100.00
13695;BME280;6919;52.344;14.518;2023-10-13T04:23:05;100554.03;;;14.63;100.00
13695;BME280;6919;52.344;14.518;2023-10-13T04:25:46;100547.97;;;14.84;100.00
13695;BME280;6919;52.344;14.518;2023-10-13T04:28:34;100557.22;;;14.67;100.00
13695;BME280;6919;52.344;14.518;2023-10-13T04:31:06;100552.19;;;14.64;100.00
13695;BME280;6919;52.344;14.518;2023-10-13T04:33:41;100550.88;;;14.60;100.00
13695;BME280;6919;52.344;14.518;2023-10-13T04:36:18;100544.09;;;14.64;100.00
13695;BME280;6919;52.344;14.518;2023-10-13T04:39:04;100552.91;;;14.58;100.00
13695;BME280;6919;52.344;14.518;2023-10-13T04:41:41;100565.31;;;14.67;100.00
13695;BME280;6919;52.344;14.518;2023-10-13T04:44:14;100560.34;;;14.56;100.00
13695;BME280;6919;52.344;14.518;2023-10-13T04:47:16;100557.66;;;14.56;100.00
13695;BME280;6919;52.344;14.518;2023-10-13T04:49:49;100554.00;;;14.86;100.00
13695;BME280;6919;52.344;14.518;2023-10-13T04:52:20;100542.50;;;14.92;100.00
13695;BME280;6919;52.344;14.518;2023-10-13T04:55:18;100548.28;;;15.04;100.00
13695;BME280;6919;52.344;14.518;2023-10-13T04:58:04;100542.56;;;14.84;100.00
13695;BME280;6919;52.344;14.518;2023-10-13T05:00:41;100542.25;;;14.79;100.00
13695;BME280;6919;52.344;14.518;2023-10-13T05:03:40;100538.06;;;14.77;100.00
13695;BME280;6919;52.344;14.518;2023-10-13T05:06:21;100536.88;;;14.79;100.00
13695;BME280;6919;52.344;14.518;2023-10-13T05:09:07;100535.28;;;14.85;100.00
13695;BME280;6919;52.344;14.518;2023-10-13T05:11:53;100540.16;;;14.89;100.00
13695;BME280;6919;52.344;14.518;2023-10-13T05:14:39;100531.31;;;14.95;100.00
13695;BME280;6919;52.344;14.518;2023-10-13T05:17:24;100531.59;;;15.00;100.00
13695;BME280;6919;52.344;14.518;2023-10-13T05:20:12;100527.69;;;14.88;100.00
13695;BME280;6919;52.344;14.518;2023-10-13T05:22:57;100532.16;;;14.96;100.00
13695;BME280;6919;52.344;14.518;2023-10-13T05:25:43;100522.19;;;14.96;100.00
13695;BME280;6919;52.344;14.518;2023-10-13T05:28:29;100528.25;;;14.98;100.00
13695;BME280;6919;52.344;14.518;2023-10-13T05:31:14;100531.03;;;14.90;100.00
13695;BME280;6919;52.344;14.518;2023-10-13T05:34:00;100531.06;;;15.05;100.00
13695;BME280;6919;52.344;14.518;2023-10-13T05:36:47;100531.06;;;15.34;100.00
13695;BME280;6919;52.344;14.518;2023-10-13T05:39:34;100523.88;;;15.12;100.00
13695;BME280;6919;52.344;14.518;2023-10-13T05:42:19;100521.84;;;14.99;100.00
13695;BME280;6919;52.344;14.518;2023-10-13T05:45:06;100527.31;;;14.91;100.00
13695;BME280;6919;52.344;14.518;2023-10-13T05:48:04;100529.63;;;14.94;100.00
13695;BME280;6919;52.344;14.518;2023-10-13T05:50:40;100531.38;;;14.87;100.00
13695;BME280;6919;52.344;14.518;2023-10-13T05:53:41;100526.81;;;15.54;100.00
13695;BME280;6919;52.344;14.518;2023-10-13T05:56:27;100528.63;;;15.10;100.00
13695;BME280;6919;52.344;14.518;2023-10-13T05:59:13;100521.28;;;15.18;100.00
13695;BME280;6919;52.344;14.518;2023-10-13T06:01:58;100521.41;;;15.39;100.00
13695;BME280;6919;52.344;14.518;2023-10-13T06:04:45;100515.31;;;15.23;100.00
13695;BME280;6919;52.344;14.518;2023-10-13T06:07:30;100524.78;;;15.41;100.00
13695;BME280;6919;52.344;14.518;2023-10-13T06:10:14;100533.22;;;15.09;100.00
13695;BME280;6919;52.344;14.518;2023-10-13T06:13:00;100530.50;;;15.67;100.00
13695;BME280;6919;52.344;14.518;2023-10-13T06:15:46;100519.56;;;15.90;100.00
13695;BME280;6919;52.344;14.518;2023-10-13T06:18:32;100508.88;;;15.82;100.00
13695;BME280;6919;52.344;14.518;2023-10-13T06:21:18;100509.31;;;15.85;100.00
13695;BME280;6919;52.344;14.518;2023-10-13T06:24:07;100505.19;;;15.89;100.00
13695;BME280;6919;52.344;14.518;2023-10-13T06:26:53;100494.47;;;15.96;100.00
13695;BME280;6919;52.344;14.518;2023-10-13T06:29:40;100502.13;;;15.42;100.00
13695;BME280;6919;52.344;14.518;2023-10-13T06:32:08;100502.19;;;15.78;100.00
13695;BME280;6919;52.344;14.518;2023-10-13T06:34:41;100500.72;;;15.61;100.00
13695;BME280;6919;52.344;14.518;2023-10-13T06:37:12;100496.97;;;15.76;100.00
13695;BME280;6919;52.344;14.518;2023-10-13T06:39:53;100498.19;;;15.59;100.00
13695;BME280;6919;52.344;14.518;2023-10-13T06:42:24;100495.78;;;15.85;100.00
13695;BME280;6919;52.344;14.518;2023-10-13T06:44:54;100496.19;;;16.03;100.00
13695;BME280;6919;52.344;14.518;2023-10-13T06:47:23;100494.75;;;15.86;100.00
13695;BME280;6919;52.344;14.518;2023-10-13T06:49:51;100498.56;;;15.56;100.00
13695;BME280;6919;52.344;14.518;2023-10-13T06:52:23;100503.75;;;15.72;100.00
13695;BME280;6919;52.344;14.518;2023-10-13T06:54:57;100496.53;;;15.79;100.00
13695;BME280;6919;52.344;14.518;2023-10-13T06:57:32;100497.06;;;16.04;100.00
13695;BME280;6919;52.344;14.518;2023-10-13T07:00:05;100492.22;;;15.99;100.00
13695;BME280;6919;52.344;14.518;2023-10-13T07:02:36;100498.03;;;16.17;100.00
13695;BME280;6919;52.344;14.518;2023-10-13T07:05:05;100501.72;;;16.31;100.00
13695;BME280;6919;52.344;14.518;2023-10-13T07:07:39;100494.09;;;16.41;100.00
13695;BME280;6919;52.344;14.518;2023-10-13T07:10:09;100494.63;;;16.51;100.00
13695;BME280;6919;52.344;14.518;2023-10-13T07:12:40;100491.19;;;16.63;100.00
13695;BME280;6919;52.344;14.518;2023-10-13T07:15:11;100483.47;;;16.60;100.00
13695;BME280;6919;52.344;14.518;2023-10-13T07:17:46;100478.56;;;16.70;100.00
13695;BME280;6919;52.344;14.518;2023-10-13T07:20:22;100478.34;;;16.72;100.00
13695;BME280;6919;52.344;14.518;2023-10-13T07:22:52;100481.88;;;16.93;100.00
13695;BME280;6919;52.344;14.518;2023-10-13T07:25:24;100474.84;;;17.05;100.00
13695;BME280;6919;52.344;14.518;2023-10-13T07:27:55;100472.00;;;16.86;100.00
13695;BME280;6919;52.344;14.518;2023-10-13T07:30:24;100467.94;;;16.96;100.00
13695;BME280;6919;52.344;14.518;2023-10-13T07:32:55;100467.38;;;17.07;100.00
13695;BME280;6919;52.344;14.518;2023-10-13T07:35:27;100458.09;;;17.23;100.00
13695;BME280;6919;52.344;14.518;2023-10-13T07:37:58;100454.13;;;17.25;100.00
13695;BME280;6919;52.344;14.518;2023-10-13T07:40:27;100460.16;;;17.55;100.00
13695;BME280;6919;52.344;14.518;2023-10-13T07:43:09;100450.38;;;17.74;100.00
13695;BME280;6919;52.344;14.518;2023-10-13T07:45:39;100457.06;;;17.71;100.00
13695;BME280;6919;52.344;14.518;2023-10-13T07:48:10;100437.06;;;17.79;100.00
13695;BME280;6919;52.344;14.518;2023-10-13T07:50:57;100447.91;;;17.79;100.00
13695;BME280;6919;52.344;14.518;2023-10-13T07:53:28;100434.97;;;17.81;100.00
13695;BME280;6919;52.344;14.518;2023-10-13T07:56:01;100438.13;;;17.91;100.00
13695;BME280;6919;52.344;14.518;2023-10-13T07:58:34;100428.28;;;17.77;100.00
13695;BME280;6919;52.344;14.518;2023-10-13T08:01:14;100429.13;;;17.84;100.00
13695;BME280;6919;52.344;14.518;2023-10-13T08:03:46;100423.91;;;17.82;100.00
13695;BME280;6919;52.344;14.518;2023-10-13T08:06:16;100423.75;;;17.90;100.00
13695;BME280;6919;52.344;14.518;2023-10-13T08:08:53;100425.22;;;18.06;100.00
13695;BME280;6919;52.344;14.518;2023-10-13T08:11:24;100415.44;;;18.18;100.00
13695;BME280;6919;52.344;14.518;2023-10-13T08:14:02;100416.91;;;18.46;100.00
13695;BME280;6919;52.344;14.518;2023-10-13T08:16:59;100407.13;;;18.39;100.00
13695;BME280;6919;52.344;14.518;2023-10-13T08:19:29;100412.53;;;18.45;100.00
13695;BME280;6919;52.344;14.518;2023-10-13T08:22:09;100397.28;;;18.51;100.00
13695;BME280;6919;52.344;14.518;2023-10-13T08:24:53;100396.22;;;18.71;100.00
13695;BME280;6919;52.344;14.518;2023-10-13T08:27:42;100399.56;;;18.60;100.00
13695;BME280;6919;52.344;14.518;2023-10-13T08:30:18;100390.13;;;18.76;100.00
13695;BME280;6919;52.344;14.518;2023-10-13T08:32:57;100394.47;;;19.03;100.00
13695;BME280;6919;52.344;14.518;2023-10-13T08:35:31;100385.69;;;19.01;100.00
13695;BME280;6919;52.344;14.518;2023-10-13T08:38:03;100391.38;;;18.93;100.00
13695;BME280;6919;52.344;14.518;2023-10-13T08:40:59;100388.03;;;18.91;100.00
13695;BME280;6919;52.344;14.518;2023-10-13T08:43:46;100390.13;;;18.89;100.00
13695;BME280;6919;52.344;14.518;2023-10-13T08:46:21;100386.72;;;19.06;100.00
13695;BME280;6919;52.344;14.518;2023-10-13T08:48:59;100381.44;;;19.24;100.00
13695;BME280;6919;52.344;14.518;2023-10-13T08:51:45;100372.44;;;19.37;100.00
13695;BME280;6919;52.344;14.518;2023-10-13T08:54:17;100373.25;;;19.37;100.00
13695;BME280;6919;52.344;14.518;2023-10-13T08:57:02;100378.31;;;19.27;100.00
13695;BME280;6919;52.344;14.518;2023-10-13T09:00:00;100363.59;;;19.41;100.00
13695;BME280;6919;52.344;14.518;2023-10-13T09:02:44;100358.09;;;19.54;100.00
13695;BME280;6919;52.344;14.518;2023-10-13T09:05:27;100344.38;;;19.74;100.00
13695;BME280;6919;52.344;14.518;2023-10-13T09:08:10;100351.69;;;19.73;100.00
13695;BME280;6919;52.344;14.518;2023-10-13T09:10:43;100344.72;;;19.84;100.00
13695;BME280;6919;52.344;14.518;2023-10-13T09:13:36;100354.50;;;19.60;100.00
13695;BME280;6919;52.344;14.518;2023-10-13T09:16:12;100357.91;;;19.87;100.00
13695;BME280;6919;52.344;14.518;2023-10-13T09:18:51;100360.63;;;19.87;100.00
13695;BME280;6919;52.344;14.518;2023-10-13T09:21:19;100358.06;;;19.92;100.00
13695;BME280;6919;52.344;14.518;2023-10-13T09:24:16;100357.63;;;19.95;100.00
13695;BME280;6919;52.344;14.518;2023-10-13T09:26:49;100350.19;;;20.15;100.00
13695;BME280;6919;52.344;14.518;2023-10-13T09:29:21;100350.41;;;20.07;100.00
13695;BME280;6919;52.344;14.518;2023-10-13T09:32:00;100340.09;;;20.15;100.00
13695;BME280;6919;52.344;14.518;2023-10-13T09:34:32;100328.69;;;20.00;100.00
13695;BME280;6919;52.344;14.518;2023-10-13T09:37:08;100330.63;;;20.25;100.00
13695;BME280;6919;52.344;14.518;2023-10-13T09:39:38;100334.53;;;20.04;100.00
13695;BME280;6919;52.344;14.518;2023-10-13T09:42:15;100322.75;;;20.10;100.00
13695;BME280;6919;52.344;14.518;2023-10-13T09:44:46;100315.09;;;20.25;100.00
13695;BME280;6919;52.344;14.518;2023-10-13T09:47:22;100320.66;;;20.12;100.00
13695;BME280;6919;52.344;14.518;2023-10-13T09:50:01;100305.81;;;20.08;100.00
13695;BME280;6919;52.344;14.518;2023-10-13T09:52:45;100311.91;;;20.03;100.00
13695;BME280;6919;52.344;14.518;2023-10-13T09:55:21;100315.28;;;19.99;100.00
13695;BME280;6919;52.344;14.518;2023-10-13T09:58:01;100304.03;;;19.95;100.00
13695;BME280;6919;52.344;14.518;2023-10-13T10:00:43;100315.47;;;20.04;100.00
13695;BME280;6919;52.344;14.518;2023-10-13T10:03:14;100309.06;;;20.23;100.00
13695;BME280;6919;52.344;14.518;2023-10-13T10:05:59;100305.50;;;20.41;100.00
13695;BME280;6919;52.344;14.518;2023-10-13T10:08:33;100299.03;;;20.42;100.00
13695;BME280;6919;52.344;14.518;2023-10-13T10:11:23;100300.75;;;20.36;100.00
13695;BME280;6919;52.344;14.518;2023-10-13T10:14:07;100285.09;;;20.50;100.00
13695;BME280;6919;52.344;14.518;2023-10-13T10:16:49;100271.63;;;20.73;100.00
13695;BME280;6919;52.344;14.518;2023-10-13T10:19:18;100267.56;;;21.00;100.00
13695;BME280;6919;52.344;14.518;2023-10-13T10:21:48;100258.81;;;21.09;100.00
13695;BME280;6919;52.344;14.518;2023-10-13T10:24:21;100257.63;;;21.35;100.00
13695;BME280;6919;52.344;14.518;2023-10-13T10:26:57;100257.13;;;21.26;100.00
13695;BME280;6919;52.344;14.518;2023-10-13T10:29:25;100255.63;;;21.12;100.00
13695;BME280;6919;52.344;14.518;2023-10-13T10:31:53;100246.59;;;21.00;100.00
13695;BME280;6919;52.344;14.518;2023-10-13T10:34:30;100241.66;;;20.91;100.00
13695;BME280;6919;52.344;14.518;2023-10-13T10:37:02;100232.97;;;21.00;100.00
13695;BME280;6919;52.344;14.518;2023-10-13T10:39:36;100215.72;;;21.18;100.00
13695;BME280;6919;52.344;14.518;2023-10-13T10:42:14;100218.59;;;21.34;100.00
13695;BME280;6919;52.344;14.518;2023-10-13T10:44:44;100215.97;;;21.28;100.00
13695;BME280;6919;52.344;14.518;2023-10-13T10:47:15;100206.38;;;21.25;100.00
13695;BME280;6919;52.344;14.518;2023-10-13T10:49:57;100202.97;;;21.41;100.00
13695;BME280;6919;52.344;14.518;2023-10-13T10:52:28;100196.53;;;21.36;100.00
13695;BME280;6919;52.344;14.518;2023-10-13T10:55:05;100190.13;;;21.30;100.00
13695;BME280;6919;52.344;14.518;2023-10-13T10:57:38;100195.00;;;21.40;100.00
13695;BME280;6919;52.344;14.518;2023-10-13T11:00:19;100179.97;;;21.08;100.00
13695;BME280;6919;52.344;14.518;2023-10-13T11:02:54;100182.91;;;20.95;100.00
13695;BME280;6919;52.344;14.518;2023-10-13T11:05:23;100183.28;;;20.80;100.00
13695;BME280;6919;52.344;14.518;2023-10-13T11:08:01;100174.28;;;20.80;100.00
13695;BME280;6919;52.344;14.518;2023-10-13T11:10:36;100179.50;;;20.81;100.00
13695;BME280;6919;52.344;14.518;2023-10-13T11:13:05;100177.72;;;20.75;100.00
13695;BME280;6919;52.344;14.518;2023-10-13T11:15:49;100186.94;;;20.74;100.00
13695;BME280;6919;52.344;14.518;2023-10-13T11:18:17;100179.81;;;20.73;100.00
13695;BME280;6919;52.344;14.518;2023-10-13T11:21:01;100177.31;;;20.72;100.00
13695;BME280;6919;52.344;14.518;2023-10-13T11:23:35;100173.63;;;20.66;100.00
13695;BME280;6919;52.344;14.518;2023-10-13T11:26:03;100175.75;;;20.46;100.00
13695;BME280;6919;52.344;14.518;2023-10-13T11:28:33;100167.47;;;20.41;100.00
13695;BME280;6919;52.344;14.518;2023-10-13T11:31:01;100169.34;;;20.41;100.00
13695;BME280;6919;52.344;14.518;2023-10-13T11:33:44;100167.59;;;20.28;100.00
13695;BME280;6919;52.344;14.518;2023-10-13T11:36:14;100188.94;;;20.31;100.00
13695;BME280;6919;52.344;14.518;2023-10-13T11:38:46;100183.03;;;20.34;100.00
13695;BME280;6919;52.344;14.518;2023-10-13T11:41:18;100174.78;;;20.41;100.00
13695;BME280;6919;52.344;14.518;2023-10-13T11:43:48;100184.91;;;20.34;100.00
13695;BME280;6919;52.344;14.518;2023-10-13T11:46:42;100173.50;;;20.25;100.00
13695;BME280;6919;52.344;14.518;2023-10-13T11:49:55;100179.41;;;20.22;100.00
13695;BME280;6919;52.344;14.518;2023-10-13T11:52:25;100191.22;;;20.16;100.00
13695;BME280;6919;52.344;14.518;2023-10-13T11:54:58;100182.38;;;20.21;100.00
13695;BME280;6919;52.344;14.518;2023-10-13T11:57:26;100172.19;;;20.09;100.00
13695;BME280;6919;52.344;14.518;2023-10-13T11:59:54;100163.28;;;20.02;100.00
13695;BME280;6919;52.344;14.518;2023-10-13T12:02:43;100155.34;;;20.01;100.00
13695;BME280;6919;52.344;14.518;2023-10-13T12:05:31;100150.34;;;19.98;100.00
13695;BME280;6919;52.344;14.518;2023-10-13T12:08:16;100146.22;;;19.89;100.00
13695;BME280;6919;52.344;14.518;2023-10-13T12:10:51;100146.44;;;20.12;100.00
13695;BME280;6919;52.344;14.518;2023-10-13T12:13:27;100143.84;;;20.17;100.00
13695;BME280;6919;52.344;14.518;2023-10-13T12:15:55;100141.31;;;20.22;100.00
13695;BME280;6919;52.344;14.518;2023-10-13T12:18:24;100137.47;;;20.05;100.00
13695;BME280;6919;52.344;14.518;2023-10-13T12:20:55;100141.88;;;20.06;100.00
13695;BME280;6919;52.344;14.518;2023-10-13T12:23:24;100126.16;;;20.08;100.00
13695;BME280;6919;52.344;14.518;2023-10-13T12:26:00;100119.22;;;20.12;100.00
13695;BME280;6919;52.344;14.518;2023-10-13T12:28:33;100110.75;;;20.20;100.00
13695;BME280;6919;52.344;14.518;2023-10-13T12:31:08;100110.75;;;20.20;100.00
13695;BME280;6919;52.344;14.518;2023-10-13T12:33:39;100102.56;;;20.20;100.00
13695;BME280;6919;52.344;14.518;2023-10-13T12:36:08;100105.59;;;20.30;100.00
13695;BME280;6919;52.344;14.518;2023-10-13T12:38:57;100104.06;;;20.34;100.00
13695;BME280;6919;52.344;14.518;2023-10-13T12:41:44;100099.13;;;20.43;100.00
13695;BME280;6919;52.344;14.518;2023-10-13T12:44:30;100080.75;;;20.38;100.00
13695;BME280;6919;52.344;14.518;2023-10-13T12:47:16;100078.66;;;20.40;100.00
13695;BME280;6919;52.344;14.518;2023-10-13T12:50:03;100075.53;;;20.37;100.00
13695;BME280;6919;52.344;14.518;2023-10-13T12:52:50;100074.84;;;20.41;100.00
13695;BME280;6919;52.344;14.518;2023-10-13T12:55:19;100069.75;;;20.33;100.00
13695;BME280;6919;52.344;14.518;2023-10-13T12:57:53;100069.06;;;20.49;100.00
13695;BME280;6919;52.344;14.518;2023-10-13T13:00:21;100069.22;;;20.54;100.00
13695;BME280;6919;52.344;14.518;2023-10-13T13:03:00;100062.53;;;20.68;100.00
13695;BME280;6919;52.344;14.518;2023-10-13T13:05:38;100050.59;;;20.81;100.00
13695;BME280;6919;52.344;14.518;2023-10-13T13:08:11;100054.88;;;20.88;100.00
13695;BME280;6919;52.344;14.518;2023-10-13T13:10:50;100044.53;;;20.79;100.00
13695;BME280;6919;52.344;14.518;2023-10-13T13:13:21;100043.28;;;20.93;100.00
13695;BME280;6919;52.344;14.518;2023-10-13T13:15:52;100033.22;;;20.93;100.00
13695;BME280;6919;52.344;14.518;2023-10-13T13:18:20;100028.75;;;21.10;100.00
13695;BME280;6919;52.344;14.518;2023-10-13T13:20:49;100026.59;;;21.01;100.00
13695;BME280;6919;52.344;14.518;2023-10-13T13:23:22;100021.63;;;21.09;100.00
13695;BME280;6919;52.344;14.518;2023-10-13T13:25:54;100021.38;;;21.11;100.00
13695;BME280;6919;52.344;14.518;2023-10-13T13:28:25;100015.94;;;21.11;100.00